Time;durP1;ratioP1;P1;durP2;ratioP2;P2;SDS_P1;SDS_P2;PMS_P1;PMS_P2;Temp;Humidity;BMP_temperature;BMP_pressure;BME280_temperature;BME280_humidity;BME280_pressure;Samples;Min_cycle;Max_cycle;Signal;HPM_P1;HPM_P2
2022/06/30 00:01:15;;;;;;;34.23;18.60;;;;;;;18.56;98.30;100333.20;1737643;81;20926;-61
2022/06/30 00:03:42;;;;;;;32.97;18.37;;;;;;;18.56;98.40;100329.73;1743505;81;21471;-57
2022/06/30 00:06:09;;;;;;;29.87;17.50;;;;;;;18.53;98.69;100327.59;1747879;81;20958;-55
2022/06/30 00:08:37;;;;;;;39.73;20.10;;;;;;;18.46;99.38;100330.34;1744709;81;21073;-57
2022/06/30 00:11:07;;;;;;;28.57;16.00;;;;;;;18.44;100.00;100327.12;1705803;83;21042;-56
2022/06/30 00:13:38;;;;;;;29.10;17.73;;;;;;;18.36;100.00;100331.45;1697796;83;21289;-55
2022/06/30 00:16:05;;;;;;;35.07;19.40;;;;;;;18.34;100.00;100336.17;1746919;81;21495;-54
2022/06/30 00:18:33;;;;;;;32.83;18.90;;;;;;;18.33;100.00;100335.87;1738344;81;21490;-54
2022/06/30 00:21:01;;;;;;;32.33;19.37;;;;;;;18.34;99.66;100345.41;1740783;81;21735;-59
2022/06/30 00:23:29;;;;;;;33.77;18.80;;;;;;;18.30;100.00;100343.75;1738654;81;21057;-62
2022/06/30 00:25:57;;;;;;;35.17;20.23;;;;;;;18.28;100.00;100345.00;1742939;81;21064;-55
2022/06/30 00:28:24;;;;;;;28.57;17.20;;;;;;;18.23;100.00;100351.78;1738576;81;21025;-55
2022/06/30 00:30:52;;;;;;;32.10;17.67;;;;;;;18.19;100.00;100357.23;1733232;81;21057;-54
2022/06/30 00:33:19;;;;;;;29.10;18.30;;;;;;;18.14;100.00;100346.55;1741445;81;21391;-57
2022/06/30 00:35:47;;;;;;;33.80;18.93;;;;;;;18.11;100.00;100343.08;1735057;81;21376;-61
2022/06/30 00:38:14;;;;;;;38.07;20.70;;;;;;;18.07;100.00;100345.89;1743408;81;21033;-55
2022/06/30 00:40:44;;;;;;;29.97;18.23;;;;;;;17.92;100.00;100339.75;1739258;81;21452;-58
2022/06/30 00:43:12;;;;;;;28.90;17.93;;;;;;;17.90;100.00;100337.84;1725380;81;21436;-56
2022/06/30 00:45:42;;;;;;;28.13;15.47;;;;;;;17.90;100.00;100334.41;1739876;81;21247;-57
2022/06/30 00:48:10;;;;;;;28.57;15.53;;;;;;;17.90;100.00;100338.37;1738441;81;20967;-56
2022/06/30 00:50:39;;;;;;;27.53;15.67;;;;;;;17.95;100.00;100335.31;1740242;81;21104;-55
2022/06/30 00:53:07;;;;;;;27.70;16.47;;;;;;;17.96;100.00;100339.58;1743120;81;21577;-63
2022/06/30 00:55:35;;;;;;;25.63;13.97;;;;;;;17.89;100.00;100333.61;1724328;81;21527;-58
2022/06/30 00:58:04;;;;;;;28.67;16.30;;;;;;;17.86;100.00;100333.27;1742100;81;21129;-59
2022/06/30 01:00:36;;;;;;;29.20;16.43;;;;;;;17.85;100.00;100328.52;1733331;81;21121;-56
2022/06/30 01:03:03;;;;;;;25.90;15.47;;;;;;;17.84;100.00;100331.36;1744416;81;21166;-64
2022/06/30 01:05:30;;;;;;;34.57;17.47;;;;;;;17.81;100.00;100332.64;1714323;81;21548;-54
2022/06/30 01:07:57;;;;;;;31.07;17.33;;;;;;;17.79;100.00;100334.69;1718320;83;21449;-61
2022/06/30 01:13:10;;;;;;;32.50;15.40;;;;;;;17.71;100.00;100335.00;1687472;83;20923;-56
2022/06/30 01:15:39;;;;;;;24.83;13.67;;;;;;;17.74;100.00;100330.59;1715828;83;21427;-54
2022/06/30 01:18:06;;;;;;;25.23;14.67;;;;;;;17.76;100.00;100329.87;1708107;83;21098;-56
2022/06/30 01:20:33;;;;;;;23.57;14.63;;;;;;;17.79;100.00;100331.25;1717335;82;21415;-54
2022/06/30 01:23:02;;;;;;;26.83;14.77;;;;;;;17.81;100.00;100337.12;1711109;83;21186;-63
2022/06/30 01:25:30;;;;;;;25.80;14.27;;;;;;;17.61;100.00;100336.06;1720517;82;21129;-54
2022/06/30 01:27:58;;;;;;;26.73;14.03;;;;;;;17.75;100.00;100329.06;1714803;83;20951;-56
2022/06/30 01:30:25;;;;;;;29.83;14.07;;;;;;;17.75;100.00;100330.38;1707918;82;21340;-54
2022/06/30 01:32:52;;;;;;;23.70;14.60;;;;;;;17.75;100.00;100323.00;1709057;82;20915;-61
2022/06/30 01:35:19;;;;;;;25.23;13.37;;;;;;;17.74;100.00;100320.85;1711888;82;21105;-54
2022/06/30 01:37:56;;;;;;;25.70;14.53;;;;;;;17.77;100.00;100317.48;1714171;82;21020;-63
2022/06/30 01:40:26;;;;;;;25.47;13.63;;;;;;;17.77;100.00;100309.58;1717342;83;22505;-54
2022/06/30 01:42:52;;;;;;;24.63;14.20;;;;;;;17.77;100.00;100310.89;1719355;82;21067;-56
2022/06/30 01:45:20;;;;;;;25.27;14.43;;;;;;;17.71;100.00;100321.30;1712505;83;20981;-55
2022/06/30 01:47:47;;;;;;;27.10;13.60;;;;;;;17.68;100.00;100321.75;1718047;82;22105;-57
2022/06/30 01:50:17;;;;;;;29.00;15.27;;;;;;;17.71;100.00;100324.45;1711863;83;21006;-55
2022/06/30 01:52:44;;;;;;;23.63;14.13;;;;;;;17.69;100.00;100318.59;1717779;83;21011;-55
2022/06/30 01:55:12;;;;;;;26.60;15.57;;;;;;;17.62;100.00;100318.73;1700445;83;21063;-55
2022/06/30 01:57:39;;;;;;;28.40;15.67;;;;;;;17.64;100.00;100313.22;1712461;83;21085;-55
2022/06/30 02:00:10;;;;;;;26.93;14.73;;;;;;;17.66;100.00;100319.88;1711674;83;21167;-62
2022/06/30 02:02:38;;;;;;;30.92;16.48;;;;;;;17.65;100.00;100319.59;1715112;83;21074;-61
2022/06/30 02:05:05;;;;;;;32.00;18.03;;;;;;;17.64;100.00;100315.84;1726032;82;21060;-55
2022/06/30 02:07:36;;;;;;;36.53;21.73;;;;;;;17.65;100.00;100313.00;1736230;82;21545;-55
2022/06/30 02:10:08;;;;;;;34.13;21.37;;;;;;;17.73;100.00;100321.89;1738176;82;21049;-57
2022/06/30 02:12:47;;;;;;;46.83;25.13;;;;;;;17.75;100.00;100317.20;1715337;82;21876;-61
2022/06/30 02:15:22;;;;;;;44.27;23.67;;;;;;;17.77;100.00;100313.03;1721869;82;21052;-56
2022/06/30 02:17:53;;;;;;;42.67;23.97;;;;;;;17.70;100.00;100322.34;1729093;82;20974;-56
2022/06/30 02:20:23;;;;;;;48.02;25.70;;;;;;;17.71;100.00;100325.77;1742380;82;21054;-61
2022/06/30 02:22:54;;;;;;;48.68;26.50;;;;;;;17.59;100.00;100324.45;1742895;82;21014;-55
2022/06/30 02:25:21;;;;;;;47.40;27.73;;;;;;;17.66;100.00;100330.94;1742601;82;21206;-63
2022/06/30 02:27:48;;;;;;;45.70;27.60;;;;;;;17.67;100.00;100332.02;1731679;82;21485;-54
2022/06/30 02:30:16;;;;;;;48.60;28.60;;;;;;;17.67;100.00;100327.27;1731892;82;21022;-56
2022/06/30 02:32:45;;;;;;;45.60;26.87;;;;;;;17.74;100.00;100328.76;1742355;82;21222;-55
2022/06/30 02:35:12;;;;;;;42.00;27.43;;;;;;;17.82;100.00;100331.60;1711561;82;21026;-54
2022/06/30 02:37:40;;;;;;;46.93;27.33;;;;;;;18.10;100.00;100332.22;1737630;82;21576;-58
2022/06/30 02:40:08;;;;;;;46.90;26.30;;;;;;;18.44;100.00;100329.24;1733955;82;21021;-55
2022/06/30 02:42:35;;;;;;;40.90;25.37;;;;;;;18.81;100.00;100333.44;1741724;82;21450;-54
2022/06/30 02:45:04;;;;;;;43.53;24.93;;;;;;;19.38;100.00;100334.71;1734389;82;21584;-57
2022/06/30 02:47:36;;;;;;;39.10;23.33;;;;;;;20.03;94.51;100334.15;1737593;82;21457;-61
2022/06/30 02:50:06;;;;;;;41.40;23.80;;;;;;;20.74;84.24;100333.48;1733229;82;21598;-57
2022/06/30 02:52:34;;;;;;;39.57;23.43;;;;;;;21.38;75.80;100329.10;1740141;82;21019;-56
2022/06/30 02:55:02;;;;;;;34.00;21.40;;;;;;;22.13;70.59;100342.89;1733260;82;21092;-55
2022/06/30 02:57:29;;;;;;;36.73;22.07;;;;;;;22.83;64.54;100334.41;1732842;82;21507;-57
2022/06/30 02:59:57;;;;;;;33.93;21.67;;;;;;;23.38;60.46;100332.14;1736733;82;21957;-55
2022/06/30 03:02:24;;;;;;;35.97;22.67;;;;;;;23.74;58.87;100332.13;1733632;82;21164;-55
2022/06/30 03:04:52;;;;;;;36.73;23.40;;;;;;;23.89;57.06;100329.45;1731925;81;20963;-55
2022/06/30 03:07:19;;;;;;;35.57;22.23;;;;;;;23.73;56.15;100332.67;1716149;82;20998;-56
2022/06/30 03:09:46;;;;;;;36.17;22.87;;;;;;;23.36;56.03;100340.91;1718799;83;20915;-57
2022/06/30 03:12:15;;;;;;;35.13;22.57;;;;;;;22.97;57.66;100333.42;1703034;82;21855;-56
2022/06/30 03:14:43;;;;;;;38.37;22.07;;;;;;;22.71;59.77;100341.83;1691250;83;21149;-54
2022/06/30 03:17:10;;;;;;;34.33;22.17;;;;;;;22.52;60.87;100335.39;1661462;86;21014;-55
2022/06/30 03:19:37;;;;;;;33.17;22.40;;;;;;;22.23;63.24;100336.32;1661557;83;21524;-63
2022/06/30 03:22:05;;;;;;;35.67;21.97;;;;;;;21.92;66.24;100337.45;1661197;86;21106;-55
2022/06/30 03:24:32;;;;;;;30.33;19.87;;;;;;;21.67;70.85;100331.46;1661114;86;21069;-56
2022/06/30 03:27:00;;;;;;;35.20;21.63;;;;;;;21.31;73.91;100318.41;1682521;83;21985;-55
2022/06/30 03:29:27;;;;;;;33.90;20.13;;;;;;;21.01;76.33;100332.97;1696970;83;21113;-57
2022/06/30 03:31:55;;;;;;;30.70;19.17;;;;;;;20.74;79.51;100330.84;1723760;82;21077;-60
2022/06/30 03:34:22;;;;;;;29.27;19.13;;;;;;;20.53;83.15;100324.49;1723990;82;21151;-56
2022/06/30 03:36:50;;;;;;;29.10;19.40;;;;;;;20.37;86.52;100325.59;1724286;83;21003;-56
2022/06/30 03:39:17;;;;;;;30.37;17.77;;;;;;;20.23;88.04;100331.00;1723389;82;21227;-59
2022/06/30 03:41:44;;;;;;;34.17;20.03;;;;;;;20.08;91.21;100326.83;1674963;83;22067;-64
2022/06/30 03:44:11;;;;;;;32.63;17.73;;;;;;;20.06;96.90;100324.94;1687180;83;21477;-55
2022/06/30 03:46:38;;;;;;;27.47;15.80;;;;;;;20.09;96.70;100323.92;1692398;83;22173;-58
2022/06/30 03:49:05;;;;;;;23.67;16.90;;;;;;;20.09;97.70;100323.92;1695952;84;21010;-63
2022/06/30 03:51:34;;;;;;;33.07;17.37;;;;;;;20.15;98.08;100322.95;1707767;83;21745;-58
2022/06/30 03:54:01;;;;;;;29.43;15.30;;;;;;;20.17;97.99;100330.11;1694639;84;21551;-64
2022/06/30 03:56:28;;;;;;;25.23;14.50;;;;;;;20.14;100.00;100327.95;1696157;84;21694;-56
2022/06/30 03:58:55;;;;;;;27.50;16.37;;;;;;;20.21;98.24;100325.66;1695676;84;20923;-65
2022/06/30 04:01:22;;;;;;;25.73;15.53;;;;;;;20.31;96.78;100329.25;1684378;83;21651;-57
2022/06/30 04:03:49;;;;;;;25.13;16.20;;;;;;;20.39;96.88;100328.02;1708301;83;21833;-63
2022/06/30 04:06:16;;;;;;;26.73;16.60;;;;;;;20.41;99.43;100321.94;1724707;81;20931;-56
2022/06/30 04:08:45;;;;;;;28.67;16.67;;;;;;;20.47;95.53;100327.59;1712325;83;21054;-56
2022/06/30 04:11:14;;;;;;;27.53;17.00;;;;;;;20.49;96.35;100321.53;1697784;83;21045;-57
2022/06/30 04:13:41;;;;;;;29.83;16.10;;;;;;;20.51;100.00;100318.13;1694427;84;21596;-65
2022/06/30 04:16:09;;;;;;;26.13;16.33;;;;;;;20.62;97.67;100321.70;1694378;84;21185;-55
2022/06/30 04:18:37;;;;;;;24.80;15.37;;;;;;;20.70;96.16;100322.58;1695464;84;21488;-56
2022/06/30 04:21:04;;;;;;;22.97;14.37;;;;;;;20.78;96.07;100330.61;1711164;83;21034;-59
2022/06/30 04:23:31;;;;;;;20.90;13.93;;;;;;;20.82;97.45;100334.36;1718456;83;21275;-56
2022/06/30 04:25:59;;;;;;;22.30;12.93;;;;;;;20.87;97.21;100333.91;1722428;83;21077;-58
2022/06/30 04:28:26;;;;;;;22.10;13.77;;;;;;;20.96;98.61;100332.13;1724601;83;21159;-56
2022/06/30 04:33:38;;;;;;;22.27;13.00;;;;;;;21.05;97.68;100335.92;1695247;84;21934;-58
2022/06/30 04:36:06;;;;;;;21.20;12.47;;;;;;;21.27;98.02;100332.69;1694425;84;21018;-56
2022/06/30 04:38:33;;;;;;;22.90;13.63;;;;;;;21.40;97.56;100337.33;1695850;83;21040;-56
2022/06/30 04:43:46;;;;;;;23.10;13.23;;;;;;;21.41;96.01;100337.62;1705006;83;21084;-56
2022/06/30 04:46:14;;;;;;;24.97;13.60;;;;;;;21.37;97.75;100334.14;1724815;82;20966;-55
2022/06/30 04:48:41;;;;;;;21.17;12.63;;;;;;;21.37;97.31;100334.14;1723169;82;21152;-63
2022/06/30 04:51:08;;;;;;;26.27;14.67;;;;;;;21.40;97.83;100330.16;1714626;83;21141;-55
2022/06/30 04:53:35;;;;;;;22.23;12.83;;;;;;;21.43;99.61;100332.31;1702609;83;21134;-57
2022/06/30 04:56:05;;;;;;;23.93;15.93;;;;;;;21.54;97.25;100342.48;1723438;83;21837;-59
2022/06/30 04:58:32;;;;;;;23.10;13.80;;;;;;;21.56;92.83;100337.21;1723588;82;21115;-59
2022/06/30 05:01:01;;;;;;;23.97;14.00;;;;;;;21.59;94.26;100342.52;1723883;82;20954;-56
2022/06/30 05:03:29;;;;;;;24.33;14.80;;;;;;;21.67;94.67;100338.59;1724129;82;21113;-58
2022/06/30 05:05:56;;;;;;;24.27;14.20;;;;;;;21.76;91.68;100338.41;1724444;82;21192;-55
2022/06/30 05:08:23;;;;;;;26.47;15.50;;;;;;;21.83;87.33;100344.30;1716955;82;21087;-55
2022/06/30 05:10:50;;;;;;;25.13;14.87;;;;;;;21.86;85.61;100334.51;1694544;84;20975;-57
2022/06/30 05:13:17;;;;;;;23.60;14.70;;;;;;;;;;1694195;84;21378;-57
2022/06/30 05:15:47;;;;;;;28.30;15.23;;;;;;;21.91;88.43;100339.04;1695954;84;22089;-55
2022/06/30 05:18:14;;;;;;;28.10;15.90;;;;;;;21.96;82.76;100337.20;1695702;84;21192;-57
2022/06/30 05:20:41;;;;;;;26.27;17.03;;;;;;;21.97;85.39;100332.19;1717932;83;21298;-62
2022/06/30 05:23:10;;;;;;;28.37;15.73;;;;;;;21.92;87.30;100336.13;1723834;82;21531;-57
2022/06/30 05:28:23;;;;;;;26.23;16.07;;;;;;;22.02;84.76;100338.84;1724101;82;21386;-58
2022/06/30 05:30:51;;;;;;;29.77;16.53;;;;;;;22.00;83.97;100344.92;1724538;83;21514;-56
2022/06/30 05:33:20;;;;;;;27.73;16.73;;;;;;;22.00;85.73;100342.27;1723655;83;21611;-64
2022/06/30 05:35:48;;;;;;;27.27;16.27;;;;;;;22.09;86.79;100339.42;1709860;82;21952;-58
2022/06/30 05:38:15;;;;;;;28.83;17.20;;;;;;;22.16;84.29;100344.54;1694845;83;21062;-63
2022/06/30 05:40:45;;;;;;;27.40;17.27;;;;;;;22.26;82.13;100346.43;1690460;83;21017;-55
2022/06/30 05:43:13;;;;;;;27.83;17.53;;;;;;;22.28;84.95;100349.11;1693990;84;21175;-59
2022/06/30 05:45:41;;;;;;;30.87;19.47;;;;;;;22.36;82.46;100345.16;1701188;83;21285;-56
2022/06/30 05:48:08;;;;;;;30.73;19.67;;;;;;;22.40;80.21;100350.22;1669200;83;21477;-57
2022/06/30 05:50:37;;;;;;;34.63;20.97;;;;;;;22.48;79.94;100349.72;1713710;80;21563;-59
2022/06/30 05:53:05;;;;;;;32.57;21.63;;;;;;;22.48;75.79;100352.37;1719039;83;20962;-64
2022/06/30 05:55:33;;;;;;;36.70;22.33;;;;;;;22.52;76.87;100355.31;1719142;81;21125;-55
2022/06/30 05:58:01;;;;;;;39.77;24.67;;;;;;;22.57;78.61;100353.47;1719001;83;20967;-57
2022/06/30 06:00:30;;;;;;;33.50;21.53;;;;;;;22.59;78.40;100356.67;1717739;83;21010;-58
2022/06/30 06:02:57;;;;;;;37.13;23.50;;;;;;;22.71;78.28;100363.09;1719086;83;21448;-56
2022/06/30 06:05:25;;;;;;;34.10;23.53;;;;;;;22.87;79.25;100369.78;1718668;83;20991;-56
2022/06/30 06:07:52;;;;;;;38.03;23.07;;;;;;;22.97;80.64;100359.22;1718943;83;21148;-59
2022/06/30 06:10:20;;;;;;;37.10;22.63;;;;;;;22.89;82.73;100358.38;1718477;83;21599;-56
2022/06/30 06:12:47;;;;;;;39.13;24.93;;;;;;;22.95;84.21;100362.65;1725225;80;21589;-56
2022/06/30 06:15:14;;;;;;;40.33;24.27;;;;;;;23.02;82.99;100361.34;1712685;83;21133;-63
2022/06/30 06:17:46;;;;;;;38.80;25.23;;;;;;;23.09;82.96;100358.97;1712218;82;21072;-56
2022/06/30 06:20:15;;;;;;;40.23;25.43;;;;;;;23.09;80.86;100361.09;1713250;83;21929;-57
2022/06/30 06:22:43;;;;;;;40.47;25.43;;;;;;;23.09;82.90;100362.95;1775754;80;21287;-56
2022/06/30 06:25:10;;;;;;;39.70;26.00;;;;;;;23.10;82.69;100364.55;1779850;80;21051;-60
2022/06/30 06:27:37;;;;;;;36.67;25.60;;;;;;;23.13;84.10;100362.69;1780384;80;20991;-56
2022/06/30 06:30:07;;;;;;;35.53;23.70;;;;;;;23.09;84.81;100364.28;1780330;80;21011;-57
2022/06/30 06:32:34;;;;;;;37.90;24.03;;;;;;;22.99;81.36;100357.87;1780834;80;21587;-55
2022/06/30 06:35:01;;;;;;;34.27;21.50;;;;;;;22.94;82.16;100363.72;1774693;80;20995;-56
2022/06/30 06:37:29;;;;;;;39.03;22.67;;;;;;;22.92;85.98;100368.48;1747744;81;21088;-55
2022/06/30 06:39:56;;;;;;;32.07;19.87;;;;;;;22.92;89.20;100365.32;1731668;80;21872;-62
2022/06/30 06:42:23;;;;;;;28.83;18.60;;;;;;;22.94;90.28;100367.17;1728911;80;20979;-57
2022/06/30 06:44:50;;;;;;;30.73;17.87;;;;;;;22.99;97.08;100363.72;1720266;81;21861;-57
2022/06/30 06:47:18;;;;;;;26.80;19.10;;;;;;;23.15;94.96;100373.88;1747664;81;21054;-60
2022/06/30 06:49:45;;;;;;;24.47;16.57;;;;;;;23.27;89.72;100367.23;1743341;81;21094;-58
2022/06/30 06:52:12;;;;;;;23.63;15.77;;;;;;;23.39;88.75;100367.52;1737503;82;21011;-56
2022/06/30 06:54:40;;;;;;;23.07;15.20;;;;;;;23.48;84.39;100372.56;1738705;82;21455;-55
2022/06/30 06:57:07;;;;;;;25.30;16.37;;;;;;;23.58;87.43;100375.23;1738731;81;21242;-58
2022/06/30 06:59:36;;;;;;;27.50;17.37;;;;;;;23.74;90.70;100372.85;1737816;81;20975;-58
2022/06/30 07:02:04;;;;;;;26.80;15.63;;;;;;;23.88;90.38;100367.79;1738014;82;21058;-59
2022/06/30 07:04:31;;;;;;;26.37;15.10;;;;;;;24.04;88.11;100369.34;1738798;81;21054;-58
2022/06/30 07:06:58;;;;;;;22.80;15.40;;;;;;;24.21;86.97;100363.73;1738542;82;21023;-58
2022/06/30 07:09:25;;;;;;;20.77;13.67;;;;;;;24.44;79.67;100361.02;1758766;81;21192;-59
2022/06/30 07:11:53;;;;;;;25.13;14.67;;;;;;;24.59;76.17;100359.37;1769327;81;20984;-59
2022/06/30 07:14:21;;;;;;;19.20;13.77;;;;;;;24.75;73.98;100367.00;1769573;81;21019;-59
2022/06/30 07:16:47;;;;;;;20.03;13.97;;;;;;;24.92;71.50;100369.30;1770238;81;20929;-57
2022/06/30 07:19:15;;;;;;;23.20;14.60;;;;;;;25.08;68.00;100370.03;1755248;81;21039;-58
2022/06/30 07:21:42;;;;;;;21.00;13.20;;;;;;;25.24;66.96;100366.75;1708762;83;21137;-59
2022/06/30 07:24:09;;;;;;;22.37;13.10;;;;;;;25.39;61.55;100360.50;1707924;83;21842;-61
2022/06/30 07:26:36;;;;;;;16.70;11.27;;;;;;;25.56;61.75;100358.75;1709334;83;21054;-59
2022/06/30 07:29:04;;;;;;;17.13;11.80;;;;;;;25.81;61.83;100362.56;1709264;82;21007;-59
2022/06/30 07:31:32;;;;;;;15.73;12.03;;;;;;;25.97;60.53;100363.20;1708893;83;21066;-56
2022/06/30 07:34:00;;;;;;;15.80;11.17;;;;;;;26.14;58.92;100357.44;1707078;83;21797;-59
2022/06/30 07:36:27;;;;;;;15.00;11.27;;;;;;;26.29;57.08;100356.44;1708702;83;21114;-56
2022/06/30 07:38:54;;;;;;;16.40;11.30;;;;;;;26.51;57.04;100355.39;1713050;81;21068;-55
2022/06/30 07:41:24;;;;;;;17.92;11.73;;;;;;;26.84;60.21;100354.17;1711224;82;21093;-56
2022/06/30 07:43:51;;;;;;;15.68;11.45;;;;;;;27.19;56.01;100361.45;1709957;83;21046;-56
2022/06/30 07:46:19;;;;;;;23.52;13.32;;;;;;;27.37;54.59;100357.95;1717981;81;21212;-55
2022/06/30 07:48:47;;;;;;;18.87;12.63;;;;;;;27.35;53.91;100354.23;1737004;81;21855;-55
2022/06/30 07:51:16;;;;;;;17.73;11.97;;;;;;;27.48;53.64;100345.98;1707631;83;21532;-58
2022/06/30 07:53:44;;;;;;;16.62;11.30;;;;;;;27.56;52.50;100352.55;1710041;82;22621;-58
2022/06/30 07:56:11;;;;;;;17.23;11.63;;;;;;;27.66;51.96;100348.37;1709121;83;20916;-63
2022/06/30 07:58:37;;;;;;;19.20;12.90;;;;;;;27.76;51.18;100347.41;1708248;83;21541;-57
2022/06/30 08:01:05;;;;;;;17.52;13.22;;;;;;;27.86;50.60;100340.53;1736423;81;21367;-65
2022/06/30 08:03:33;;;;;;;20.75;13.68;;;;;;;27.82;49.17;100335.52;1710090;81;21592;-56
2022/06/30 08:06:01;;;;;;;57.57;26.53;;;;;;;27.85;48.65;100329.03;1709072;83;20971;-56
2022/06/30 08:08:31;;;;;;;18.57;13.55;;;;;;;28.03;49.11;100327.88;1707652;83;21071;-59
2022/06/30 08:10:58;;;;;;;28.38;16.23;;;;;;;28.30;47.19;100328.44;1709022;82;21235;-59
2022/06/30 08:13:26;;;;;;;19.55;13.28;;;;;;;28.52;46.70;100329.05;1708548;83;20955;-58
2022/06/30 08:15:54;;;;;;;19.17;13.72;;;;;;;28.66;43.57;100321.77;1709078;83;20979;-58
2022/06/30 08:18:22;;;;;;;21.10;13.90;;;;;;;28.78;44.00;100326.05;1749620;81;21059;-62
2022/06/30 08:20:49;;;;;;;19.98;12.80;;;;;;;29.00;44.51;100321.84;1770020;81;21384;-59
2022/06/30 08:23:17;;;;;;;25.72;14.05;;;;;;;29.15;43.07;100325.50;1769041;81;21155;-59
2022/06/30 08:25:44;;;;;;;21.25;14.18;;;;;;;29.04;42.78;100327.63;1769045;81;21744;-58
2022/06/30 08:28:11;;;;;;;18.67;12.80;;;;;;;28.99;42.77;100325.63;1768429;81;21042;-62
2022/06/30 08:30:39;;;;;;;20.50;13.90;;;;;;;28.90;42.10;100323.38;1769237;81;20997;-56
2022/06/30 08:33:06;;;;;;;18.23;10.32;;;;;;;28.83;42.18;100314.44;1770478;81;20925;-55
2022/06/30 08:35:33;;;;;;;14.85;8.40;;;;;;;28.80;42.35;100320.41;1769278;81;21302;-55
2022/06/30 08:38:00;;;;;;;17.02;8.83;;;;;;;28.71;41.04;100313.60;1731446;81;21076;-55
2022/06/30 08:43:14;;;;;;;10.63;7.60;;;;;;;28.68;41.15;100310.73;1707794;83;21046;-57
2022/06/30 08:45:42;;;;;;;14.18;8.30;;;;;;;28.84;40.47;100310.09;1709445;83;21435;-58
2022/06/30 08:48:10;;;;;;;12.65;8.63;;;;;;;28.95;40.97;100311.21;1708750;83;21291;-58
2022/06/30 08:50:37;;;;;;;11.85;7.10;;;;;;;28.99;40.44;100306.30;1708655;82;21070;-56
2022/06/30 08:53:04;;;;;;;8.93;5.45;;;;;;;28.99;41.45;100309.53;1713441;81;21102;-59
2022/06/30 08:55:32;;;;;;;7.87;4.72;;;;;;;28.98;39.14;100311.95;1737395;82;21067;-56
2022/06/30 08:58:07;;;;;;;6.85;4.55;;;;;;;28.79;39.10;100308.88;1737925;81;21098;-58
2022/06/30 09:00:36;;;;;;;6.72;3.87;;;;;;;28.74;39.49;100308.19;1737373;81;21632;-55
2022/06/30 09:03:04;;;;;;;7.85;3.70;;;;;;;28.79;37.88;100307.55;1734269;81;21042;-63
2022/06/30 09:05:32;;;;;;;4.12;2.83;;;;;;;28.63;38.78;100312.98;1709187;83;21085;-58
2022/06/30 09:07:59;;;;;;;4.03;2.60;;;;;;;28.67;39.67;100309.16;1708284;83;21054;-58
2022/06/30 09:10:26;;;;;;;6.08;2.83;;;;;;;28.75;38.49;100307.91;1708438;83;21596;-58
2022/06/30 09:12:59;;;;;;;4.05;2.45;;;;;;;28.81;39.04;100303.98;1660731;83;21978;-57
2022/06/30 09:15:30;;;;;;;3.05;1.95;;;;;;;29.07;38.94;100303.42;1709122;83;21493;-56
2022/06/30 09:18:00;;;;;;;3.62;2.47;;;;;;;29.31;37.41;100304.44;1708957;83;20999;-58
2022/06/30 09:20:36;;;;;;;6.28;3.00;;;;;;;29.33;36.11;100304.38;1724957;81;21491;-57
2022/06/30 09:23:29;;;;;;;4.95;2.40;;;;;;;29.34;35.82;100301.93;1738373;82;21039;-59
2022/06/30 09:26:01;;;;;;;3.98;2.50;;;;;;;29.47;35.42;100305.66;1737409;82;21200;-59
2022/06/30 09:28:50;;;;;;;4.40;2.65;;;;;;;29.34;35.68;100300.59;1738163;82;20972;-65
2022/06/30 09:31:35;;;;;;;4.00;2.45;;;;;;;29.31;35.23;100306.56;1713542;82;21062;-66
2022/06/30 09:34:19;;;;;;;5.30;2.92;;;;;;;29.30;35.78;100292.91;1708231;83;20998;-59
2022/06/30 09:36:48;;;;;;;3.37;1.90;;;;;;;29.38;36.15;100291.37;1709033;83;20992;-63
2022/06/30 09:39:17;;;;;;;3.45;2.05;;;;;;;29.34;35.49;100292.53;1743693;81;21293;-57
2022/06/30 09:41:45;;;;;;;2.67;1.65;;;;;;;29.18;35.62;100298.61;1758439;81;37502;-65
2022/06/30 09:44:22;;;;;;;5.03;2.02;;;;;;;29.09;34.80;100302.55;1737371;82;21098;-58
2022/06/30 09:47:01;;;;;;;2.37;1.60;;;;;;;29.02;34.46;100299.53;1738856;82;20923;-63
2022/06/30 09:49:45;;;;;;;2.15;1.60;;;;;;;29.14;34.36;100298.42;1738289;82;21070;-62
2022/06/30 09:52:22;;;;;;;2.33;1.62;;;;;;;29.29;34.10;100298.59;1724337;81;21206;-62
2022/06/30 09:55:04;;;;;;;3.58;2.10;;;;;;;29.39;34.59;100296.98;1709200;81;21394;-57
2022/06/30 09:57:40;;;;;;;3.40;2.15;;;;;;;29.45;33.59;100300.34;1708039;83;21932;-58
2022/06/30 10:00:16;;;;;;;9.08;4.65;;;;;;;29.39;32.43;100292.95;1707729;83;21077;-58
2022/06/30 10:02:46;;;;;;;4.25;2.50;;;;;;;29.45;32.54;100293.63;1728987;81;21514;-65
2022/06/30 10:05:16;;;;;;;4.40;2.33;;;;;;;29.47;32.18;100290.06;1738436;82;21754;-58
2022/06/30 10:07:44;;;;;;;3.60;2.20;;;;;;;29.50;31.99;100294.82;1738412;81;21092;-60
2022/06/30 10:10:16;;;;;;;2.40;1.37;;;;;;;29.46;31.60;100289.83;1736139;81;21094;-57
2022/06/30 10:12:45;;;;;;;4.75;1.55;;;;;;;29.51;32.03;100285.66;1708631;82;21058;-61
2022/06/30 10:15:14;;;;;;;2.67;1.75;;;;;;;29.57;31.20;100285.77;1708051;83;21356;-58
2022/06/30 10:17:45;;;;;;;3.20;1.50;;;;;;;29.56;31.05;100281.52;1709785;83;21117;-63
2022/06/30 10:20:12;;;;;;;2.00;1.40;;;;;;;29.44;31.12;100277.28;1708973;81;20988;-57
2022/06/30 10:22:39;;;;;;;3.30;1.70;;;;;;;29.38;31.29;100273.91;1709530;81;21000;-64
2022/06/30 10:25:07;;;;;;;3.33;1.70;;;;;;;29.32;32.31;100271.92;1708729;82;22423;-57
2022/06/30 10:27:34;;;;;;;3.40;1.77;;;;;;;29.23;32.21;100267.04;1717597;81;21556;-61
2022/06/30 10:30:09;;;;;;;3.55;2.40;;;;;;;29.11;31.90;100259.32;1729725;81;21726;-56
2022/06/30 10:32:56;;;;;;;3.52;1.95;;;;;;;28.89;31.40;100272.95;1723523;82;21051;-58
2022/06/30 10:35:49;;;;;;;3.45;1.55;;;;;;;28.66;32.02;100268.69;1738850;82;20970;-64
2022/06/30 10:38:34;;;;;;;2.65;1.32;;;;;;;28.40;32.79;100273.81;1733063;81;21034;-58
2022/06/30 10:41:06;;;;;;;3.33;1.37;;;;;;;28.16;32.35;100276.17;1708070;83;22595;-56
2022/06/30 10:43:34;;;;;;;3.00;1.80;;;;;;;27.96;33.23;100273.89;1734805;81;21846;-57
2022/06/30 10:46:05;;;;;;;2.30;1.50;;;;;;;27.90;34.61;100281.25;1714678;82;21059;-58
2022/06/30 10:48:53;;;;;;;4.55;1.50;;;;;;;27.96;36.70;100277.91;1708765;83;21542;-63
2022/06/30 10:51:23;;;;;;;3.47;2.35;;;;;;;28.12;35.99;100265.80;1708659;83;20979;-57
2022/06/30 10:53:58;;;;;;;3.70;2.02;;;;;;;28.17;36.48;100260.33;1721543;81;21495;-55
2022/06/30 10:56:56;;;;;;;4.65;1.82;;;;;;;28.18;35.69;100253.08;1711041;82;21944;-63
2022/06/30 10:59:37;;;;;;;8.58;2.90;;;;;;;28.10;34.64;100258.05;1689291;81;21118;-55
2022/06/30 11:02:23;;;;;;;3.20;1.90;;;;;;;28.03;33.30;100256.86;1645208;85;20994;-57
2022/06/30 11:04:52;;;;;;;6.20;2.80;;;;;;;28.06;33.22;100261.63;1686746;83;21111;-57
2022/06/30 11:07:21;;;;;;;4.22;1.30;;;;;;;28.33;33.76;100254.88;1627618;86;21481;-57
2022/06/30 11:09:57;;;;;;;2.85;1.60;;;;;;;28.76;32.12;100244.31;1672869;85;21598;-59
2022/06/30 11:12:39;;;;;;;3.55;1.57;;;;;;;28.96;32.36;100241.13;1672661;85;21064;-56
2022/06/30 11:15:09;;;;;;;2.55;1.42;;;;;;;29.11;31.56;100242.66;1689002;84;21576;-57
2022/06/30 11:17:39;;;;;;;4.72;1.80;;;;;;;29.08;31.54;100243.27;1700601;84;21093;-57
2022/06/30 11:20:13;;;;;;;5.10;1.90;;;;;;;29.02;31.82;100241.83;1676027;84;21080;-57
2022/06/30 11:22:41;;;;;;;4.22;2.45;;;;;;;29.02;32.21;100243.17;1700306;84;21233;-57
2022/06/30 11:27:17;;;;;;;5.90;3.05;;;;;;;28.97;32.47;100245.94;1693438;84;21853;-62
2022/06/30 11:27:45;;;;;;;7.20;3.65;;;;;;;28.88;32.42;100245.89;1668320;85;21724;-57
2022/06/30 11:30:14;;;;;;;10.23;4.28;;;;;;;28.79;32.27;100244.50;1671341;84;21073;-56
2022/06/30 11:32:43;;;;;;;;;;;;;;;28.78;31.28;100235.39;1674705;84;21115;-65
2022/06/30 11:35:10;;;;;;;4.60;2.80;;;;;;;29.03;33.20;100241.52;1672361;85;22240;-58